Terminal Aerodrome Forecast
Issued by NWS

Home | Current Version | Previous Version | Graphics & Text | Print | Product List | Glossary On
Versions: 1 2 3 4 5 6 7 8 9 10 11 12 13 14 15 16 17 18 19
990
FTUS43 KBIS 160936 AAA
TAFJMS
TAF AMD
KJMS 160936Z 1610/1706 12010KT P6SM OVC004
     FM161400 12009KT P6SM OVC008
     FM161700 14019G28KT P6SM OVC008
     FM162000 15019G28KT P6SM BKN250
     FM170200 15013KT P6SM BKN250=

USA.gov is the U.S. government's official web portal to all federal, state and local government web resources and services.